<?xml version="1.0" encoding="utf-8"?>
<gpx xmlns:xsi="http://www.w3.org/2001/XMLSchema-instance" xmlns:xsd="http://www.w3.org/2001/XMLSchema" version="1.1" creator="Shapelink.com" xmlns="http://www.topografix.com/GPX/1/1" xmlns:gpxtpx="http://www.garmin.com/xmlschemas/TrackPointExtension/v1">
  <metadata>
    <name>Cycling 2.35 km, 2020-07-28</name>
    <desc></desc>
    <author><name>Marian Moron</name></author> 
    <time>2020-07-28T10:59:09Z</time>
  </metadata>
  <trk>
    <name>Cycling 2.35 km, 2020-07-28</name>
    <trkseg>
      <trkpt lat="51.230462227007" lon="4.458979860318">
        <ele>0</ele>
        <time>2020-07-28T10:59:09Z</time>
      </trkpt>
      <trkpt lat="51.230570269698" lon="4.459821989811">
        <ele>0</ele>
        <time>2020-07-28T10:59:28Z</time>
      </trkpt>
      <trkpt lat="51.230655932716" lon="4.460666382417">
        <ele>0</ele>
        <time>2020-07-28T10:59:43Z</time>
      </trkpt>
      <trkpt lat="51.230637241079" lon="4.460708627193">
        <ele>0</ele>
        <time>2020-07-28T10:59:44Z</time>
      </trkpt>
      <trkpt lat="51.230113456148" lon="4.460903674006">
        <ele>1.6</ele>
        <time>2020-07-28T10:59:59Z</time>
      </trkpt>
      <trkpt lat="51.229693606777" lon="4.461264347163">
        <ele>7</ele>
        <time>2020-07-28T11:00:16Z</time>
      </trkpt>
      <trkpt lat="51.229935508411" lon="4.462074541617">
        <ele>5.6</ele>
        <time>2020-07-28T11:00:30Z</time>
      </trkpt>
      <trkpt lat="51.230181265719" lon="4.462913653626">
        <ele>3.2</ele>
        <time>2020-07-28T11:00:44Z</time>
      </trkpt>
      <trkpt lat="51.230396764368" lon="4.463722590795">
        <ele>1.6</ele>
        <time>2020-07-28T11:00:57Z</time>
      </trkpt>
      <trkpt lat="51.230413779625" lon="4.463930964829">
        <ele>1</ele>
        <time>2020-07-28T11:01:03Z</time>
      </trkpt>
      <trkpt lat="51.230629865007" lon="4.464726239501">
        <ele>2</ele>
        <time>2020-07-28T11:01:19Z</time>
      </trkpt>
      <trkpt lat="51.230775039515" lon="4.465555125592">
        <ele>1.4</ele>
        <time>2020-07-28T11:01:34Z</time>
      </trkpt>
      <trkpt lat="51.230757605163" lon="4.46641611436">
        <ele>1.2</ele>
        <time>2020-07-28T11:01:47Z</time>
      </trkpt>
      <trkpt lat="51.230756766973" lon="4.467307780882">
        <ele>1</ele>
        <time>2020-07-28T11:02:00Z</time>
      </trkpt>
      <trkpt lat="51.23077462042" lon="4.467340805568">
        <ele>1.2</ele>
        <time>2020-07-28T11:02:01Z</time>
      </trkpt>
      <trkpt lat="51.230838239041" lon="4.467369555485">
        <ele>1</ele>
        <time>2020-07-28T11:02:04Z</time>
      </trkpt>
      <trkpt lat="51.231381972894" lon="4.467217088724">
        <ele>0</ele>
        <time>2020-07-28T11:02:20Z</time>
      </trkpt>
      <trkpt lat="51.231914139725" lon="4.46712354672">
        <ele>0</ele>
        <time>2020-07-28T11:02:36Z</time>
      </trkpt>
      <trkpt lat="51.232022433873" lon="4.467031094363">
        <ele>0</ele>
        <time>2020-07-28T11:02:41Z</time>
      </trkpt>
      <trkpt lat="51.232107593977" lon="4.467140981072">
        <ele>0</ele>
        <time>2020-07-28T11:02:46Z</time>
      </trkpt>
      <trkpt lat="51.232397523898" lon="4.467866350698">
        <ele>0</ele>
        <time>2020-07-28T11:02:59Z</time>
      </trkpt>
      <trkpt lat="51.23274352873" lon="4.468586775003">
        <ele>0</ele>
        <time>2020-07-28T11:03:11Z</time>
      </trkpt>
      <trkpt lat="51.233070590468" lon="4.469277024468">
        <ele>0</ele>
        <time>2020-07-28T11:03:22Z</time>
      </trkpt>
      <trkpt lat="51.233367058271" lon="4.470010105442">
        <ele>0</ele>
        <time>2020-07-28T11:03:33Z</time>
      </trkpt>
      <trkpt lat="51.233693198" lon="4.470755004895">
        <ele>0</ele>
        <time>2020-07-28T11:03:44Z</time>
      </trkpt>
      <trkpt lat="51.234049931664" lon="4.471479117236">
        <ele>0</ele>
        <time>2020-07-28T11:03:57Z</time>
      </trkpt>
      <trkpt lat="51.234408341708" lon="4.47221806554">
        <ele>0</ele>
        <time>2020-07-28T11:04:10Z</time>
      </trkpt>
      <trkpt lat="51.234621996339" lon="4.472758614271">
        <ele>0</ele>
        <time>2020-07-28T11:04:18Z</time>
      </trkpt>
      <trkpt lat="51.234897257935" lon="4.473549781812">
        <ele>2.4</ele>
        <time>2020-07-28T11:04:31Z</time>
      </trkpt>
      <trkpt lat="51.23520026362" lon="4.474220585269">
        <ele>4.2</ele>
        <time>2020-07-28T11:04:46Z</time>
      </trkpt>
      <trkpt lat="51.235324064283" lon="4.475061792753">
        <ele>12.8</ele>
        <time>2020-07-28T11:04:59Z</time>
      </trkpt>
      <trkpt lat="51.235466975678" lon="4.475951699076">
        <ele>22</ele>
        <time>2020-07-28T11:05:11Z</time>
      </trkpt>
      <trkpt lat="51.235590608703" lon="4.476870690592">
        <ele>33.6</ele>
        <time>2020-07-28T11:05:23Z</time>
      </trkpt>
      <trkpt lat="51.235784817326" lon="4.477743330201">
        <ele>26.2</ele>
        <time>2020-07-28T11:05:35Z</time>
      </trkpt>
      <trkpt lat="51.235996041206" lon="4.478341630223">
        <ele>9.6</ele>
        <time>2020-07-28T11:05:44Z</time>
      </trkpt>
      <trkpt lat="51.236132414719" lon="4.479228938157">
        <ele>4.2</ele>
        <time>2020-07-28T11:05:58Z</time>
      </trkpt>
      <trkpt lat="51.236076591265" lon="4.480132004063">
        <ele>6.6</ele>
        <time>2020-07-28T11:06:12Z</time>
      </trkpt>
      <trkpt lat="51.236049685366" lon="4.480816889112">
        <ele>5.6</ele>
        <time>2020-07-28T11:06:22Z</time>
      </trkpt>
      <trkpt lat="51.235999310147" lon="4.481689277264">
        <ele>5.6</ele>
        <time>2020-07-28T11:06:33Z</time>
      </trkpt>
      <trkpt lat="51.235998974871" lon="4.482558731751">
        <ele>17</ele>
        <time>2020-07-28T11:06:47Z</time>
      </trkpt>
      <trkpt lat="51.236033508299" lon="4.483079666836">
        <ele>17.2</ele>
        <time>2020-07-28T11:06:59Z</time>
      </trkpt>
      <trkpt lat="51.236090086124" lon="4.483071033479">
        <ele>13</ele>
        <time>2020-07-28T11:07:08Z</time>
      </trkpt>
      <trkpt lat="51.236300052719" lon="4.483000793157">
        <ele>4.6</ele>
        <time>2020-07-28T11:07:18Z</time>
      </trkpt>
      <trkpt lat="51.236296532321" lon="4.482078616519">
        <ele>1.2</ele>
        <time>2020-07-28T11:07:34Z</time>
      </trkpt>
      <trkpt lat="51.236324779324" lon="4.481189548386">
        <ele>2.2</ele>
        <time>2020-07-28T11:07:48Z</time>
      </trkpt>
      <trkpt lat="51.236344141513" lon="4.480935409178">
        <ele>3</ele>
        <time>2020-07-28T11:08:03Z</time>
      </trkpt>
      <trkpt lat="51.236366018272" lon="4.480828204677">
        <ele>3.8</ele>
        <time>2020-07-28T11:08:12Z</time>
      </trkpt>
    </trkseg>
  </trk>
</gpx>